Axantha II — CQKN — position and weather

sailwx.info

Track history (hours):
 
Tides and Currents Weather Stations Pressure Air Temp Water Temp Dewpoint Dewpoint Depression Visibility Wind Speed Wind Dir Waves Ship Positions

Axantha II

Last reported at 2016-Jun-28 08:12 UTC. Time now 2016-Jun-28 15:16 UTC.
Position N 40°34' E 014°14'.

Length 43 m; draft 2.8 m.

Type: Ship. MMSI: 255804580.

Date/timePositionNaut miles runAvg speedWind from/ knotsBaromVisibWave heightAir tempDewpointWater temp
2016-Jun-28 08:12N 40°34' E 014°14'1 0.3
2016-Jun-28 04:31N 40°33' E 014°15'0 0.0
2016-Jun-28 03:33N 40°33' E 014°15'0 0.0
2016-Jun-28 02:29N 40°33' E 014°15'0 0.0
2016-Jun-28 01:30N 40°33' E 014°15'0 0.0
2016-Jun-28 00:33N 40°33' E 014°15'0 0.0
2016-Jun-27 23:32N 40°33' E 014°15'0 0.0
2016-Jun-27 22:33N 40°33' E 014°15'0 0.0
2016-Jun-27 21:33N 40°33' E 014°15'0 0.0
2016-Jun-27 20:33N 40°33' E 014°15'0 0.0
2016-Jun-27 19:32N 40°33' E 014°15'0 0.0
2016-Jun-27 18:32N 40°33' E 014°15'0 0.0
2016-Jun-27 17:33N 40°33' E 014°15'1 0.7
2016-Jun-27 16:33N 40°34' E 014°14'6 2.1
2016-Jun-27 13:33N 40°38' E 014°20'1 1.2
2016-Jun-27 12:33N 40°38' E 014°22'1 0.8
2016-Jun-27 11:33N 40°38' E 014°23'2 2.2
2016-Jun-27 10:33N 40°40' E 014°24'  
2016-Jun-24 09:29N 40°42' E 014°28'5 5.3
2016-Jun-24 08:33N 40°43' E 014°22'10 9.8
2016-Jun-24 07:33N 40°44' E 014°09'12 0.3
2016-Jun-22 20:21N 40°46' E 013°54'0 0.0
2016-Jun-22 19:33N 40°46' E 013°54'0 0.3
2016-Jun-22 18:33N 40°46' E 013°54'10 9.7
2016-Jun-22 17:33N 40°52' E 013°43'195 6.1
2016-Jun-21 09:24N 42°39' E 010°05'3010.1
2016-Jun-21 06:28N 42°56' E 009°32'4 0.5
2016-Jun-20 22:24N 42°58' E 009°28'6 1.2
2016-Jun-20 17:06N 43°04' E 009°26'6 9.8
2016-Jun-20 16:29N 43°07' E 009°20'1010.1
2016-Jun-20 15:32N 43°14' E 009°10'10 9.9
2016-Jun-20 14:33N 43°20' E 008°59'1010.1
2016-Jun-20 13:33N 43°26' E 008°48'1010.4
2016-Jun-20 12:33N 43°32' E 008°36'9 9.0
2016-Jun-20 11:34N 43°37' E 008°27'10 9.9
2016-Jun-20 10:33N 43°43' E 008°16'  
Track history (hours):
 
Tides and Currents Weather Stations Pressure Air Temp Water Temp Dewpoint Dewpoint Depression Visibility Wind Speed Wind Dir Waves Ship Positions

Axantha II

Last reported at 2016-Jun-28 08:12 UTC. Time now 2016-Jun-28 15:16 UTC.
Position N 40°34' E 014°14'.

Length 43 m; draft 2.8 m.

Type: Ship. MMSI: 255804580.

Date/timePositionNaut miles runAvg speedWind from/ knotsBaromVisibWave heightAir tempDewpointWater temp
2016-Jun-28 08:12N 40°34' E 014°14'1 0.3
2016-Jun-28 04:31N 40°33' E 014°15'0 0.0
2016-Jun-28 03:33N 40°33' E 014°15'0 0.0
2016-Jun-28 02:29N 40°33' E 014°15'0 0.0
2016-Jun-28 01:30N 40°33' E 014°15'0 0.0
2016-Jun-28 00:33N 40°33' E 014°15'0 0.0
2016-Jun-27 23:32N 40°33' E 014°15'0 0.0
2016-Jun-27 22:33N 40°33' E 014°15'0 0.0
2016-Jun-27 21:33N 40°33' E 014°15'0 0.0
2016-Jun-27 20:33N 40°33' E 014°15'0 0.0
2016-Jun-27 19:32N 40°33' E 014°15'0 0.0
2016-Jun-27 18:32N 40°33' E 014°15'0 0.0
2016-Jun-27 17:33N 40°33' E 014°15'1 0.7
2016-Jun-27 16:33N 40°34' E 014°14'6 2.1
2016-Jun-27 13:33N 40°38' E 014°20'1 1.2
2016-Jun-27 12:33N 40°38' E 014°22'1 0.8
2016-Jun-27 11:33N 40°38' E 014°23'2 2.2
2016-Jun-27 10:33N 40°40' E 014°24'  
2016-Jun-24 09:29N 40°42' E 014°28'5 5.3
2016-Jun-24 08:33N 40°43' E 014°22'10 9.8
2016-Jun-24 07:33N 40°44' E 014°09'12 0.3
2016-Jun-22 20:21N 40°46' E 013°54'0 0.0
2016-Jun-22 19:33N 40°46' E 013°54'0 0.3
2016-Jun-22 18:33N 40°46' E 013°54'10 9.7
2016-Jun-22 17:33N 40°52' E 013°43'195 6.1
2016-Jun-21 09:24N 42°39' E 010°05'3010.1
2016-Jun-21 06:28N 42°56' E 009°32'4 0.5
2016-Jun-20 22:24N 42°58' E 009°28'6 1.2
2016-Jun-20 17:06N 43°04' E 009°26'6 9.8
2016-Jun-20 16:29N 43°07' E 009°20'1010.1
2016-Jun-20 15:32N 43°14' E 009°10'10 9.9
2016-Jun-20 14:33N 43°20' E 008°59'1010.1
2016-Jun-20 13:33N 43°26' E 008°48'1010.4
2016-Jun-20 12:33N 43°32' E 008°36'9 9.0
2016-Jun-20 11:34N 43°37' E 008°27'10 9.9
2016-Jun-20 10:33N 43°43' E 008°16'  

Dump ship's entire track history